createdAt,value
2023-04-16T00:01:42.226Z,100.00
2023-04-16T00:04:11.636Z,100.00
2023-04-16T00:06:39.563Z,100.00
2023-04-16T00:09:07.946Z,100.00
2023-04-16T00:11:36.067Z,100.00
2023-04-16T00:14:04.019Z,100.00
2023-04-16T00:16:32.000Z,100.00
2023-04-16T00:18:59.920Z,100.00
2023-04-16T00:21:29.273Z,100.00
2023-04-16T00:23:57.160Z,100.00
2023-04-16T00:26:25.092Z,100.00
2023-04-16T00:28:53.670Z,100.00
2023-04-16T00:31:28.319Z,100.00
2023-04-16T00:33:57.789Z,100.00
2023-04-16T00:36:27.115Z,100.00
2023-04-16T00:38:57.194Z,100.00
2023-04-16T00:41:26.272Z,100.00
2023-04-16T00:43:54.254Z,100.00
2023-04-16T00:46:23.218Z,100.00
2023-04-16T00:48:52.686Z,100.00
2023-04-16T00:51:21.363Z,100.00
2023-04-16T00:53:49.406Z,100.00
2023-04-16T00:56:20.524Z,100.00
2023-04-16T00:58:49.747Z,100.00
2023-04-16T01:01:17.857Z,100.00
2023-04-16T01:03:47.329Z,100.00
2023-04-16T01:06:15.707Z,100.00
2023-04-16T01:08:43.653Z,100.00
2023-04-16T01:11:12.137Z,100.00
2023-04-16T01:13:41.426Z,100.00
2023-04-16T01:16:10.092Z,100.00
2023-04-16T01:18:38.869Z,100.00
2023-04-16T01:21:08.402Z,100.00
2023-04-16T01:23:36.467Z,100.00
2023-04-16T01:26:07.766Z,100.00
2023-04-16T01:28:36.131Z,100.00
2023-04-16T01:31:04.275Z,100.00
2023-04-16T01:33:55.305Z,100.00
2023-04-16T01:36:25.216Z,100.00
2023-04-16T01:38:53.236Z,100.00
2023-04-16T01:41:21.221Z,100.00
2023-04-16T01:43:49.199Z,100.00
2023-04-16T01:46:25.947Z,100.00
2023-04-16T01:48:55.352Z,100.00
2023-04-16T01:51:23.475Z,100.00
2023-04-16T01:53:53.373Z,100.00
2023-04-16T01:56:21.450Z,100.00
2023-04-16T01:58:49.527Z,100.00
2023-04-16T02:01:19.286Z,100.00
2023-04-16T02:03:48.954Z,100.00
2023-04-16T02:06:17.060Z,100.00
2023-04-16T02:08:44.980Z,100.00
2023-04-16T02:11:16.336Z,100.00
2023-04-16T02:13:44.817Z,100.00
2023-04-16T02:16:13.628Z,100.00
2023-04-16T02:18:49.816Z,100.00
2023-04-16T02:21:20.282Z,100.00
2023-04-16T02:23:51.686Z,100.00
2023-04-16T02:26:26.536Z,100.00
2023-04-16T02:28:56.527Z,100.00
2023-04-16T02:31:30.517Z,100.00
2023-04-16T02:33:59.212Z,100.00
2023-04-16T02:36:27.487Z,100.00
2023-04-16T02:38:56.852Z,100.00
2023-04-16T02:41:26.552Z,100.00
2023-04-16T02:43:54.470Z,100.00
2023-04-16T02:46:22.748Z,100.00
2023-04-16T02:48:51.278Z,100.00
2023-04-16T02:51:19.238Z,100.00
2023-04-16T02:53:47.077Z,100.00
2023-04-16T02:56:15.548Z,100.00
2023-04-16T02:58:44.827Z,100.00
2023-04-16T03:01:12.867Z,100.00
2023-04-16T03:03:41.008Z,100.00
2023-04-16T03:06:08.971Z,100.00
2023-04-16T03:08:36.939Z,100.00
2023-04-16T03:11:05.013Z,100.00
2023-04-16T03:13:32.846Z,100.00
2023-04-16T03:16:02.444Z,100.00
2023-04-16T03:18:30.477Z,100.00
2023-04-16T03:20:58.354Z,100.00
2023-04-16T03:23:26.455Z,100.00
2023-04-16T03:25:54.380Z,100.00
2023-04-16T03:28:22.469Z,100.00
2023-04-16T03:30:53.565Z,100.00
2023-04-16T03:33:23.039Z,100.00
2023-04-16T03:36:01.392Z,100.00
2023-04-16T03:38:31.811Z,100.00
2023-04-16T03:41:00.658Z,100.00
2023-04-16T03:43:31.681Z,100.00
2023-04-16T03:45:59.818Z,100.00
2023-04-16T03:48:29.168Z,100.00
2023-04-16T03:50:57.203Z,100.00
2023-04-16T03:53:25.325Z,100.00
2023-04-16T03:55:53.801Z,100.00
2023-04-16T03:58:22.856Z,100.00
2023-04-16T04:00:54.248Z,100.00
2023-04-16T04:03:22.605Z,100.00
2023-04-16T04:05:52.785Z,100.00
2023-04-16T04:08:31.507Z,100.00
2023-04-16T04:10:59.688Z,100.00
2023-04-16T04:13:27.914Z,100.00
2023-04-16T04:15:56.841Z,100.00
2023-04-16T04:18:25.029Z,100.00
2023-04-16T04:20:54.779Z,100.00
2023-04-16T04:23:27.028Z,100.00
2023-04-16T04:25:55.045Z,100.00
2023-04-16T04:28:23.607Z,100.00
2023-04-16T04:30:51.873Z,100.00
2023-04-16T04:33:20.066Z,100.00
2023-04-16T04:35:48.434Z,100.00
2023-04-16T04:38:19.919Z,100.00
2023-04-16T04:40:48.611Z,100.00
2023-04-16T04:43:17.746Z,100.00
2023-04-16T04:45:46.032Z,100.00
2023-04-16T04:48:14.224Z,100.00
2023-04-16T04:50:42.380Z,100.00
2023-04-16T04:53:11.231Z,100.00
2023-04-16T04:55:41.568Z,100.00
2023-04-16T04:58:10.495Z,100.00
2023-04-16T05:00:40.336Z,100.00
2023-04-16T05:03:11.481Z,100.00
2023-04-16T05:05:39.549Z,100.00
2023-04-16T05:08:07.575Z,100.00
2023-04-16T05:10:35.530Z,100.00
2023-04-16T05:13:04.914Z,100.00
2023-04-16T05:15:32.818Z,100.00
2023-04-16T05:18:00.771Z,100.00
2023-04-16T05:20:28.764Z,100.00
2023-04-16T05:22:56.644Z,100.00
2023-04-16T05:25:24.831Z,100.00
2023-04-16T05:27:52.766Z,100.00
2023-04-16T05:30:22.002Z,100.00
2023-04-16T05:32:49.939Z,100.00
2023-04-16T05:35:17.961Z,100.00
2023-04-16T05:37:45.905Z,100.00
2023-04-16T05:40:15.071Z,100.00
2023-04-16T05:42:43.023Z,100.00
2023-04-16T05:45:11.788Z,100.00
2023-04-16T05:47:41.342Z,100.00
2023-04-16T05:50:09.806Z,100.00
2023-04-16T05:52:37.800Z,100.00
2023-04-16T05:55:06.263Z,100.00
2023-04-16T05:57:34.313Z,100.00
2023-04-16T06:00:02.369Z,100.00
2023-04-16T06:02:41.435Z,100.00
2023-04-16T06:05:09.832Z,100.00
2023-04-16T06:07:37.874Z,100.00
2023-04-16T06:10:06.551Z,100.00
2023-04-16T06:12:34.479Z,100.00
2023-04-16T06:15:03.608Z,100.00
2023-04-16T06:17:31.524Z,100.00
2023-04-16T06:20:00.975Z,100.00
2023-04-16T06:22:28.914Z,100.00
2023-04-16T06:24:56.900Z,100.00
2023-04-16T06:27:24.809Z,100.00
2023-04-16T06:29:52.851Z,100.00
2023-04-16T06:32:20.814Z,100.00
2023-04-16T06:34:48.745Z,100.00
2023-04-16T06:37:17.965Z,100.00
2023-04-16T06:39:45.845Z,100.00
2023-04-16T06:42:13.781Z,100.00
2023-04-16T06:44:41.661Z,100.00
2023-04-16T06:47:09.723Z,100.00
2023-04-16T06:49:38.988Z,100.00
2023-04-16T06:52:07.043Z,100.00
2023-04-16T06:54:36.348Z,100.00
2023-04-16T06:57:04.237Z,100.00
2023-04-16T06:59:32.669Z,100.00
2023-04-16T07:02:00.826Z,100.00
2023-04-16T07:04:28.982Z,100.00
2023-04-16T07:06:57.675Z,100.00
2023-04-16T07:09:26.770Z,100.00
2023-04-16T07:11:56.236Z,100.00
2023-04-16T07:14:24.261Z,100.00
2023-04-16T07:16:52.202Z,100.00
2023-04-16T07:19:20.097Z,100.00
2023-04-16T07:21:48.001Z,100.00
2023-04-16T07:24:15.903Z,100.00
2023-04-16T07:26:43.799Z,100.00
2023-04-16T07:29:13.594Z,100.00
2023-04-16T07:31:41.635Z,100.00
2023-04-16T07:34:09.645Z,100.00
2023-04-16T07:36:39.070Z,100.00
2023-04-16T07:39:06.977Z,100.00
2023-04-16T07:41:35.260Z,100.00
2023-04-16T07:44:03.288Z,100.00
2023-04-16T07:46:45.525Z,100.00
2023-04-16T07:49:15.213Z,100.00
2023-04-16T07:51:43.687Z,100.00
2023-04-16T07:54:11.955Z,100.00
2023-04-16T07:56:40.125Z,100.00
2023-04-16T07:59:19.140Z,100.00
2023-04-16T08:01:51.456Z,100.00
2023-04-16T08:04:25.078Z,100.00
2023-04-16T08:06:53.830Z,100.00
2023-04-16T08:09:22.114Z,100.00
2023-04-16T08:11:50.352Z,100.00
2023-04-16T08:14:18.211Z,100.00
2023-04-16T08:16:46.170Z,100.00
2023-04-16T08:19:15.458Z,100.00
2023-04-16T08:21:43.387Z,100.00
2023-04-16T08:24:11.254Z,100.00
2023-04-16T08:26:39.209Z,100.00
2023-04-16T08:29:07.151Z,100.00
2023-04-16T08:31:35.115Z,100.00
2023-04-16T08:34:03.117Z,100.00
2023-04-16T08:36:32.465Z,100.00
2023-04-16T08:39:00.416Z,100.00
2023-04-16T08:41:31.294Z,100.00
2023-04-16T08:44:01.374Z,100.00
2023-04-16T08:46:30.836Z,100.00
2023-04-16T08:49:00.327Z,100.00
2023-04-16T08:51:29.710Z,100.00
2023-04-16T08:54:01.512Z,100.00
2023-04-16T08:56:32.526Z,100.00
2023-04-16T08:59:03.166Z,100.00
2023-04-16T09:01:31.587Z,100.00
2023-04-16T09:04:01.561Z,100.00
2023-04-16T09:06:29.861Z,100.00
2023-04-16T09:09:01.536Z,100.00
2023-04-16T09:11:29.493Z,100.00
2023-04-16T09:13:57.334Z,100.00
2023-04-16T09:16:26.452Z,100.00
2023-04-16T09:18:54.430Z,100.00
2023-04-16T09:21:24.206Z,100.00
2023-04-16T09:23:54.158Z,100.00
2023-04-16T09:26:25.446Z,100.00
2023-04-16T09:28:53.435Z,100.00
2023-04-16T09:31:21.394Z,100.00
2023-04-16T09:34:02.546Z,100.00
2023-04-16T09:36:31.323Z,100.00
2023-04-16T09:39:00.144Z,100.00
2023-04-16T09:41:30.843Z,100.00
2023-04-16T09:44:00.526Z,100.00
2023-04-16T09:46:31.436Z,100.00
2023-04-16T09:48:59.571Z,100.00
2023-04-16T09:51:28.416Z,100.00
2023-04-16T09:53:58.059Z,100.00
2023-04-16T09:56:27.052Z,100.00
2023-04-16T09:59:00.989Z,100.00
2023-04-16T10:01:29.228Z,100.00
2023-04-16T10:03:57.380Z,100.00
2023-04-16T10:06:27.223Z,100.00
2023-04-16T10:08:57.325Z,100.00
2023-04-16T10:11:25.945Z,100.00
2023-04-16T10:13:53.857Z,100.00
2023-04-16T10:16:23.370Z,100.00
2023-04-16T10:18:51.558Z,100.00
2023-04-16T10:21:20.022Z,100.00
2023-04-16T10:23:49.680Z,100.00
2023-04-16T10:26:19.307Z,100.00
2023-04-16T10:28:47.934Z,100.00
2023-04-16T10:31:17.510Z,100.00
2023-04-16T10:33:47.115Z,100.00
2023-04-16T10:36:16.237Z,100.00
2023-04-16T10:38:47.545Z,100.00
2023-04-16T10:41:15.620Z,100.00
2023-04-16T10:43:45.540Z,100.00
2023-04-16T10:46:21.630Z,100.00
2023-04-16T10:48:52.217Z,100.00
2023-04-16T10:51:31.576Z,100.00
2023-04-16T10:54:04.533Z,100.00
2023-04-16T10:56:33.580Z,100.00
2023-04-16T10:59:01.435Z,100.00
2023-04-16T11:01:34.016Z,100.00
2023-04-16T11:04:38.907Z,100.00
2023-04-16T11:07:08.957Z,100.00
2023-04-16T11:09:54.898Z,100.00
2023-04-16T11:12:27.583Z,100.00
2023-04-16T11:15:00.432Z,100.00
2023-04-16T11:17:35.814Z,100.00
2023-04-16T11:20:17.488Z,100.00
2023-04-16T11:22:49.224Z,100.00
2023-04-16T11:25:21.813Z,100.00
2023-04-16T11:27:49.992Z,100.00
2023-04-16T11:30:19.219Z,100.00
2023-04-16T11:32:47.291Z,100.00
2023-04-16T11:35:18.403Z,100.00
2023-04-16T11:37:48.580Z,100.00
2023-04-16T11:40:19.378Z,100.00
2023-04-16T11:42:47.990Z,100.00
2023-04-16T11:45:21.422Z,100.00
2023-04-16T11:47:52.268Z,100.00
2023-04-16T11:50:23.952Z,100.00
2023-04-16T11:52:53.404Z,100.00
2023-04-16T11:55:22.043Z,100.00
2023-04-16T11:57:51.015Z,100.00
2023-04-16T12:00:23.093Z,100.00
2023-04-16T12:02:55.658Z,100.00
2023-04-16T12:05:33.522Z,100.00
2023-04-16T12:08:03.328Z,100.00
2023-04-16T12:10:36.024Z,100.00
2023-04-16T12:13:13.909Z,100.00
2023-04-16T12:15:45.979Z,100.00
2023-04-16T12:18:14.199Z,100.00
2023-04-16T12:20:43.997Z,100.00
2023-04-16T12:23:13.817Z,100.00
2023-04-16T12:25:44.195Z,100.00
2023-04-16T12:28:12.456Z,100.00
2023-04-16T12:30:50.985Z,100.00
2023-04-16T12:33:21.245Z,100.00
2023-04-16T12:35:51.057Z,100.00
2023-04-16T12:38:19.103Z,100.00
2023-04-16T12:40:47.026Z,100.00
2023-04-16T12:43:15.110Z,100.00
2023-04-16T12:45:43.184Z,100.00
2023-04-16T12:48:11.205Z,100.00
2023-04-16T12:50:39.901Z,100.00
2023-04-16T12:53:09.295Z,100.00
2023-04-16T12:55:37.270Z,100.00
2023-04-16T12:58:05.184Z,100.00
2023-04-16T13:00:33.278Z,100.00
2023-04-16T13:03:01.253Z,100.00
2023-04-16T13:05:29.401Z,99.45
2023-04-16T13:07:57.307Z,100.00
2023-04-16T13:10:27.875Z,100.00
2023-04-16T13:12:56.032Z,100.00
2023-04-16T13:15:24.186Z,100.00
2023-04-16T13:17:52.145Z,100.00
2023-04-16T13:20:20.757Z,100.00
2023-04-16T13:22:50.036Z,100.00
2023-04-16T13:25:18.322Z,100.00
2023-04-16T13:27:47.664Z,100.00
2023-04-16T13:30:16.181Z,100.00
2023-04-16T13:32:44.271Z,100.00
2023-04-16T13:35:12.386Z,100.00
2023-04-16T13:37:40.516Z,100.00
2023-04-16T13:40:10.059Z,100.00
2023-04-16T13:42:38.204Z,100.00
2023-04-16T13:45:09.441Z,100.00
2023-04-16T13:47:37.570Z,100.00
2023-04-16T13:50:06.201Z,100.00
2023-04-16T13:52:34.184Z,100.00
2023-04-16T13:55:02.338Z,100.00
2023-04-16T13:57:31.176Z,93.20
2023-04-16T13:59:59.301Z,89.69
2023-04-16T14:02:29.317Z,84.82
2023-04-16T14:04:57.325Z,77.38
2023-04-16T14:07:27.154Z,78.76
2023-04-16T14:09:55.145Z,88.69
2023-04-16T14:12:23.150Z,91.06
2023-04-16T14:14:51.160Z,98.40
2023-04-16T14:17:19.287Z,100.00
2023-04-16T14:19:48.569Z,100.00
2023-04-16T14:22:17.856Z,100.00
2023-04-16T14:24:45.818Z,100.00
2023-04-16T14:27:13.768Z,100.00
2023-04-16T14:29:42.345Z,100.00
2023-04-16T14:32:10.372Z,100.00
2023-04-16T14:34:38.368Z,100.00
2023-04-16T14:37:07.717Z,100.00
2023-04-16T14:39:36.399Z,100.00
2023-04-16T14:42:04.375Z,98.21
2023-04-16T14:44:32.449Z,100.00
2023-04-16T14:47:00.501Z,100.00
2023-04-16T14:49:28.644Z,100.00
2023-04-16T14:51:56.674Z,100.00
2023-04-16T14:54:26.586Z,100.00
2023-04-16T14:56:54.745Z,95.47
2023-04-16T14:59:22.900Z,94.70
2023-04-16T15:01:51.469Z,94.23
2023-04-16T15:04:19.865Z,94.74
2023-04-16T15:06:48.109Z,87.58
2023-04-16T15:09:16.013Z,80.49
2023-04-16T15:11:45.225Z,75.55
2023-04-16T15:14:13.377Z,74.79
2023-04-16T15:16:41.446Z,83.10
2023-04-16T15:19:09.788Z,87.53
2023-04-16T15:21:37.885Z,95.15
2023-04-16T15:24:06.275Z,100.00
2023-04-16T15:26:34.578Z,100.00
2023-04-16T15:29:04.860Z,100.00
2023-04-16T15:31:33.304Z,100.00
2023-04-16T15:34:01.717Z,100.00
2023-04-16T15:36:29.996Z,100.00
2023-04-16T15:38:57.966Z,100.00
2023-04-16T15:41:26.231Z,100.00
2023-04-16T15:43:54.180Z,100.00
2023-04-16T15:46:23.471Z,100.00
2023-04-16T15:48:51.677Z,100.00
2023-04-16T15:51:19.567Z,100.00
2023-04-16T15:53:49.529Z,100.00
2023-04-16T15:56:17.603Z,100.00
2023-04-16T15:58:48.801Z,100.00
2023-04-16T16:01:19.754Z,100.00
2023-04-16T16:03:49.380Z,100.00
2023-04-16T16:06:17.979Z,100.00
2023-04-16T16:08:45.952Z,100.00
2023-04-16T16:11:13.990Z,100.00
2023-04-16T16:13:42.085Z,100.00
2023-04-16T16:16:10.099Z,100.00
2023-04-16T16:18:38.078Z,100.00
2023-04-16T16:21:07.798Z,100.00
2023-04-16T16:23:36.169Z,100.00
2023-04-16T16:26:06.131Z,100.00
2023-04-16T16:28:37.592Z,100.00
2023-04-16T16:31:06.093Z,100.00
2023-04-16T16:33:34.207Z,100.00
2023-04-16T16:36:02.318Z,100.00
2023-04-16T16:38:31.793Z,100.00
2023-04-16T16:40:59.765Z,100.00
2023-04-16T16:43:27.857Z,100.00
2023-04-16T16:45:55.878Z,100.00
2023-04-16T16:48:23.927Z,100.00
2023-04-16T16:50:52.024Z,100.00
2023-04-16T16:53:19.952Z,100.00
2023-04-16T16:55:49.247Z,100.00
2023-04-16T16:58:17.247Z,100.00
2023-04-16T17:00:45.177Z,100.00
2023-04-16T17:03:13.519Z,100.00
2023-04-16T17:05:41.723Z,100.00
2023-04-16T17:08:09.718Z,100.00
2023-04-16T17:10:37.823Z,100.00
2023-04-16T17:13:07.093Z,100.00
2023-04-16T17:15:35.078Z,100.00
2023-04-16T17:18:03.195Z,100.00
2023-04-16T17:20:32.537Z,100.00
2023-04-16T17:23:00.484Z,100.00
2023-04-16T17:25:28.598Z,100.00
2023-04-16T17:27:56.586Z,100.00
2023-04-16T17:30:28.119Z,100.00
2023-04-16T17:32:56.329Z,100.00
2023-04-16T17:35:24.755Z,100.00
2023-04-16T17:37:52.769Z,100.00
2023-04-16T17:40:20.693Z,100.00
2023-04-16T17:42:49.931Z,100.00
2023-04-16T17:45:18.037Z,100.00
2023-04-16T17:47:47.380Z,100.00
2023-04-16T17:50:15.444Z,100.00
2023-04-16T17:52:44.442Z,100.00
2023-04-16T17:55:12.921Z,100.00
2023-04-16T17:57:40.995Z,100.00
2023-04-16T18:00:11.386Z,100.00
2023-04-16T18:02:42.724Z,100.00
2023-04-16T18:05:12.953Z,100.00
2023-04-16T18:07:41.258Z,100.00
2023-04-16T18:10:10.763Z,100.00
2023-04-16T18:12:38.855Z,100.00
2023-04-16T18:15:08.196Z,100.00
2023-04-16T18:17:36.422Z,100.00
2023-04-16T18:20:07.248Z,100.00
2023-04-16T18:22:36.667Z,100.00
2023-04-16T18:25:05.310Z,100.00
2023-04-16T18:27:33.542Z,100.00
2023-04-16T18:30:03.994Z,100.00
2023-04-16T18:32:32.794Z,100.00
2023-04-16T18:35:01.791Z,100.00
2023-04-16T18:37:29.872Z,100.00
2023-04-16T18:39:59.276Z,100.00
2023-04-16T18:42:29.379Z,100.00
2023-04-16T18:44:59.308Z,100.00
2023-04-16T18:47:27.692Z,100.00
2023-04-16T18:49:55.718Z,100.00
2023-04-16T18:52:23.821Z,100.00
2023-04-16T18:54:51.783Z,100.00
2023-04-16T18:57:21.130Z,100.00
2023-04-16T18:59:49.177Z,100.00
2023-04-16T19:02:17.269Z,100.00
2023-04-16T19:04:45.232Z,100.00
2023-04-16T19:07:13.105Z,100.00
2023-04-16T19:09:41.116Z,100.00
2023-04-16T19:12:09.136Z,100.00
2023-04-16T19:14:38.547Z,100.00
2023-04-16T19:17:06.540Z,100.00
2023-04-16T19:19:35.627Z,100.00
2023-04-16T19:22:03.631Z,100.00
2023-04-16T19:24:34.159Z,100.00
2023-04-16T19:27:02.662Z,100.00
2023-04-16T19:29:33.973Z,100.00
2023-04-16T19:32:03.724Z,100.00
2023-04-16T19:34:32.110Z,100.00
2023-04-16T19:37:00.270Z,100.00
2023-04-16T19:39:28.699Z,100.00
2023-04-16T19:41:57.760Z,100.00
2023-04-16T19:44:27.598Z,100.00
2023-04-16T19:46:55.645Z,100.00
2023-04-16T19:49:26.069Z,100.00
2023-04-16T19:51:54.760Z,100.00
2023-04-16T19:54:22.731Z,100.00
2023-04-16T19:56:51.738Z,100.00
2023-04-16T19:59:20.540Z,100.00
2023-04-16T20:01:48.525Z,100.00
2023-04-16T20:04:16.403Z,100.00
2023-04-16T20:06:45.698Z,100.00
2023-04-16T20:09:13.793Z,100.00
2023-04-16T20:11:41.686Z,100.00
2023-04-16T20:14:09.655Z,100.00
2023-04-16T20:16:38.811Z,100.00
2023-04-16T20:19:08.724Z,100.00
2023-04-16T20:21:37.036Z,100.00
2023-04-16T20:24:10.543Z,100.00
2023-04-16T20:26:38.487Z,100.00
2023-04-16T20:29:06.294Z,100.00
2023-04-16T20:31:34.228Z,100.00
2023-04-16T20:34:02.127Z,100.00
2023-04-16T20:36:30.272Z,100.00
2023-04-16T20:38:59.426Z,100.00
2023-04-16T20:41:30.155Z,100.00
2023-04-16T20:43:58.116Z,100.00
2023-04-16T20:46:30.300Z,100.00
2023-04-16T20:48:58.268Z,100.00
2023-04-16T20:51:27.604Z,100.00
2023-04-16T20:53:55.580Z,100.00
2023-04-16T20:56:23.479Z,100.00
2023-04-16T20:58:53.752Z,100.00
2023-04-16T21:01:21.789Z,100.00
2023-04-16T21:03:49.846Z,100.00
2023-04-16T21:06:22.513Z,100.00
2023-04-16T21:08:50.429Z,100.00
2023-04-16T21:11:18.342Z,100.00
2023-04-16T21:13:46.208Z,100.00
2023-04-16T21:16:15.641Z,100.00
2023-04-16T21:18:43.624Z,100.00
2023-04-16T21:21:11.574Z,100.00
2023-04-16T21:23:39.650Z,100.00
2023-04-16T21:26:07.531Z,100.00
2023-04-16T21:28:35.582Z,100.00
2023-04-16T21:31:03.528Z,100.00
2023-04-16T21:33:32.777Z,100.00
2023-04-16T21:36:00.702Z,100.00
2023-04-16T21:38:28.679Z,100.00
2023-04-16T21:40:56.938Z,100.00
2023-04-16T21:43:25.101Z,100.00
2023-04-16T21:45:53.416Z,100.00
2023-04-16T21:48:21.418Z,100.00
2023-04-16T21:50:55.732Z,100.00
2023-04-16T21:53:23.653Z,100.00
2023-04-16T21:55:51.568Z,100.00
2023-04-16T21:58:19.465Z,100.00
2023-04-16T22:00:47.398Z,100.00
2023-04-16T22:03:17.432Z,100.00
2023-04-16T22:05:45.943Z,100.00
2023-04-16T22:08:24.149Z,100.00
2023-04-16T22:10:53.016Z,100.00
2023-04-16T22:13:22.781Z,100.00
2023-04-16T22:15:50.673Z,100.00
2023-04-16T22:18:18.634Z,100.00
2023-04-16T22:20:47.206Z,100.00
2023-04-16T22:23:16.425Z,100.00
2023-04-16T22:25:44.541Z,100.00
2023-04-16T22:28:12.648Z,100.00
2023-04-16T22:30:40.799Z,100.00
2023-04-16T22:33:08.724Z,100.00
2023-04-16T22:35:36.753Z,100.00
2023-04-16T22:38:04.737Z,100.00
2023-04-16T22:40:33.985Z,100.00
2023-04-16T22:43:01.904Z,100.00
2023-04-16T22:45:29.853Z,100.00
2023-04-16T22:47:57.863Z,100.00
2023-04-16T22:50:25.787Z,100.00
2023-04-16T22:52:53.761Z,100.00
2023-04-16T22:55:21.741Z,100.00
2023-04-16T22:57:51.034Z,100.00
2023-04-16T23:00:19.580Z,100.00
2023-04-16T23:02:47.642Z,100.00
2023-04-16T23:05:15.833Z,100.00
2023-04-16T23:07:43.756Z,100.00
2023-04-16T23:10:11.946Z,100.00
2023-04-16T23:12:40.174Z,100.00
2023-04-16T23:15:10.208Z,100.00
2023-04-16T23:17:38.257Z,100.00
2023-04-16T23:20:08.685Z,100.00
2023-04-16T23:22:36.758Z,100.00
2023-04-16T23:25:05.008Z,100.00
2023-04-16T23:27:33.369Z,100.00
2023-04-16T23:30:01.254Z,100.00
2023-04-16T23:32:30.491Z,100.00
2023-04-16T23:34:58.647Z,100.00
2023-04-16T23:37:26.718Z,100.00
2023-04-16T23:39:54.699Z,100.00
2023-04-16T23:42:22.649Z,100.00
2023-04-16T23:44:50.636Z,100.00
2023-04-16T23:47:18.586Z,100.00
2023-04-16T23:49:47.908Z,100.00
2023-04-16T23:52:15.806Z,100.00
2023-04-16T23:54:43.766Z,100.00
2023-04-16T23:57:11.692Z,100.00
2023-04-16T23:59:39.680Z,100.00
